DON PEDRO RESERVOIR (DNP)

Elevation: 830' · TUOLUMNE R basin · Operator: Turlock Irrigation District


Station comments:

04/19/2016Reservoir elevation data is now being collected from the USGS site.


Provisional data, subject to change.
Query executed Sunday at 10:22:35   clock

Select a sensor type for a plot of data.
Note: Reservoir Flows are daily averages.

Earlier

Date RES ELE    STORAGE    RES CHG    TOC STO    ABV TOC    OUTFLOW    INFLOW    PPT INC   
 FEET   AF   AF   AF   AF   CFS   CFS   INCHES  
04/02/2016 755.00 1227099 3528 1690000 -- 1674 3452 0.00
04/03/2016 756.13 1231518 4862 1690000 -457597 1450 3678 0.00
04/04/2016 756.86 1238612 7539 1690000 -451388 521 4098 0.00
04/05/2016 757.60 1244844 7124 1690000 -445156 304 3446 0.00
04/06/2016 758.28 1251098 7149 1690000 -438902 698 3851 0.00
04/07/2016 758.74 1254682 4033 1690000 -435318 1675 3482 0.00
04/08/2016 759.24 1259173 5840 1690000 -- 1815 4079 0.00
04/09/2016 759.96 1266400 5418 1690000 -- 1979 5623 0.00
04/10/2016 760.72 1272734 8155 1690000 -417266 1233 4426 0.00
04/11/2016 761.38 1279091 7268 1690000 -410909 1067 4272 0.00
04/12/2016 762.10 1285473 7296 1690000 -404527 634 3851 0.00
04/13/2016 762.79 1291879 7782 1690000 -398121 638 3868 0.00
04/14/2016 763.54 1298309 7812 1690000 -391691 385 3627 0.00
04/15/2016 764.06 1303840 5993 1690000 -- 1461 4249 0.00
04/16/2016 764.23 1304764 1386 1690000 -- 2907 3673 0.00
04/17/2016 764.40 1306612 1850 1690000 -383388 3222 4154 0.00
04/18/2016 764.97 1312170 4075 1690000 -377830 1748 4550 0.00
04/19/2016 765.77 1319609 5762 1690000 -370391 1097 4847 0.00
04/20/2016 766.52 1326144 5320 1690000 -363856 1161 4456 0.00
04/21/2016 767.15 1332704 4496 1690000 -- 1422 4729 0.00
04/22/2016 767.70 1337405 3007 1690000 -- 2364 4734 0.00
04/23/2016 768.14 1341174 4237 1690000 -- 2842 4742 0.00
04/24/2016 768.69 1346844 5004 1690000 -345048 1978 4837 0.00
04/25/2016 769.37 1353481 4358 1690000 -336519 1105 4452 0.00
04/26/2016 769.82 1357285 1901 1690000 -332715 2009 3926 0.00
04/27/2016 770.09 1360143 286 1699189 -339046 2810 4251 0.00
04/28/2016 770.18 1361097 -1424 1708378 -347282 2662 3143 0.00
04/29/2016 770.17 1360811 -286 -- -- -- -- --
04/30/2016 770.42 1363197 2386 -- -- -- -- --
05/01/2016 -- -- -- -- -- -- -- --

Later | Latest

Warning! This data is preliminary and subject to revision.

Show DNP Map | Plot DNP Data | 1 Month DNP Data | Real-Time DNP Data | DNP Info